»·PEaware :: AMMO22 KSEA-KPDX

AMMO22 :: KSEA-KPDX

FLIGHT INFORMATION

Flight Status: Arrived
Operator: Unknown
More flights by this operator :: More flights under this callsign
Pilot: Aaron T. (22212)
Aircraft: BEECH AIRCRAFT T-6A TEXAN
(TEX2)
More flights by this aircraft type
Origin: KSEA Seattle-Tacoma Intl
United States
Destination: KPDX Portland Intl
United States
More flights between these airports :: More routes between these airports
Route: SEA7 SEA HELNS6
File this flight plan on PilotEdge
Remarks:
Altitude:
(Current/Filed)
12,000ft
Speed:
(Current/Filed)
270kts
Departed: 18-Feb-21 10:51 AM
Arrived: 18-Feb-21 11:20 AM
Distance/Time
Traveled:
112nm/0:28
Distance/Time
To Go:
Arrived

Flight Plot

Page will automatically refresh every two minutes.

Flight plan parsing failed; only flown route is shown


Map Options




Map Legend


Flown Route
Filed Route
Departure Airport
Arrival Airport
Navaid (VOR, NDB)
Fix

Horizontal Profiles

Position Reports

Time Latitude Longitude Heading Altitude Ground
Speed
18-Feb-21 10:12 47.448409 -122.303432 227 401ft 0kts
18-Feb-21 10:13 47.448409 -122.303432 227 401ft 0kts
18-Feb-21 10:14 47.448409 -122.303432 227 401ft 0kts
18-Feb-21 10:15 47.448409 -122.303432 227 401ft 0kts
18-Feb-21 10:16 47.448409 -122.303433 227 401ft 0kts
18-Feb-21 10:17 47.448409 -122.303433 227 401ft 0kts
18-Feb-21 10:18 47.448409 -122.303433 227 401ft 0kts
18-Feb-21 10:19 47.448409 -122.303433 227 401ft 0kts
18-Feb-21 10:20 47.448409 -122.303433 227 401ft 0kts
18-Feb-21 10:21 47.448409 -122.303433 227 401ft 0kts
18-Feb-21 10:22 47.448409 -122.303433 227 401ft 0kts
18-Feb-21 10:23 47.448409 -122.303433 227 401ft 0kts
18-Feb-21 10:24 47.448409 -122.303433 227 401ft 0kts
18-Feb-21 10:25 47.448409 -122.303433 227 401ft 0kts
18-Feb-21 10:26 47.448409 -122.303433 227 401ft 0kts
18-Feb-21 10:27 47.448409 -122.303433 227 401ft 0kts
18-Feb-21 10:28 47.448409 -122.303433 227 401ft 0kts
18-Feb-21 10:29 47.448409 -122.303433 227 401ft 0kts
18-Feb-21 10:30 47.448409 -122.303433 227 401ft 0kts
18-Feb-21 10:31 47.448409 -122.303433 227 401ft 0kts
18-Feb-21 10:32 47.448409 -122.303433 227 401ft 0kts
18-Feb-21 10:33 47.448409 -122.303433 227 401ft 0kts
18-Feb-21 10:34 47.448409 -122.303433 227 401ft 0kts
18-Feb-21 10:35 47.448409 -122.303432 227 401ft 0kts
18-Feb-21 10:36 47.448409 -122.303432 227 401ft 0kts
18-Feb-21 10:37 47.448409 -122.303432 227 401ft 0kts
18-Feb-21 10:38 47.448409 -122.303433 227 401ft 0kts
18-Feb-21 10:39 47.448409 -122.303433 227 401ft 0kts
18-Feb-21 10:40 47.448409 -122.303432 227 401ft 0kts
18-Feb-21 10:41 47.448409 -122.303433 227 401ft 0kts
18-Feb-21 10:42 47.448409 -122.303433 227 401ft 0kts
18-Feb-21 10:43 47.448286 -122.303675 239 401ft 4kts
18-Feb-21 10:44 47.447990 -122.306217 336 399ft 6kts
18-Feb-21 10:45 47.452673 -122.306228 0 418ft 12kts
18-Feb-21 10:46 47.459425 -122.306165 2 443ft 15kts
18-Feb-21 10:47 47.463727 -122.306476 287 420ft 0kts
18-Feb-21 10:48 47.463727 -122.306475 287 420ft 0kts
18-Feb-21 10:49 47.462785 -122.307843 180 417ft 36kts
18-Feb-21 10:50 47.425034 -122.307885 182 2339ft 167kts
18-Feb-21 10:51 47.377567 -122.306352 182 5456ft 171kts
18-Feb-21 10:52 47.329687 -122.303697 180 8056ft 181kts
18-Feb-21 10:53 47.279248 -122.302933 178 10752ft 185kts
18-Feb-21 10:54 47.223804 -122.295732 174 11848ft 250kts
18-Feb-21 10:55 47.154834 -122.287564 178 11942ft 243kts
18-Feb-21 10:56 47.082590 -122.284776 179 11840ft 275kts
18-Feb-21 10:57 47.005724 -122.289129 188 11924ft 277kts
18-Feb-21 10:58 46.929618 -122.311172 183 11913ft 279kts
18-Feb-21 10:59 46.851981 -122.323321 191 11820ft 281kts
18-Feb-21 11:00 46.775332 -122.340932 178 11751ft 283kts
18-Feb-21 11:01 46.698187 -122.341312 181 12281ft 272kts
18-Feb-21 11:02 46.619202 -122.345711 180 11591ft 287kts
18-Feb-21 11:03 46.541064 -122.348056 182 11865ft 276kts
18-Feb-21 11:04 46.465018 -122.356898 188 12090ft 280kts
18-Feb-21 11:05 46.388238 -122.369920 187 12197ft 286kts
18-Feb-21 11:06 46.308895 -122.385135 188 11631ft 291kts
18-Feb-21 11:07 46.228929 -122.392453 182 11081ft 289kts
18-Feb-21 11:08 46.147783 -122.396966 183 10011ft 298kts
18-Feb-21 11:09 46.069235 -122.415964 199 9922ft 278kts
18-Feb-21 11:10 45.997776 -122.459695 205 9735ft 276kts
18-Feb-21 11:11 45.931725 -122.518183 217 9552ft 276kts
18-Feb-21 11:12 45.873551 -122.588101 222 9790ft 275kts
18-Feb-21 11:13 45.811459 -122.646401 240 9414ft 276kts
18-Feb-21 11:14 45.773433 -122.734233 226 6881ft 253kts
18-Feb-21 11:15 45.710020 -122.762133 195 4531ft 229kts
18-Feb-21 11:16 45.655993 -122.737783 146 3724ft 197kts
18-Feb-21 11:17 45.619170 -122.684405 119 1965ft 213kts
18-Feb-21 11:18 45.595557 -122.622497 121 66ft 109kts
18-Feb-21 11:19 45.589129 -122.605407 82 19ft 16kts
18-Feb-21 11:20 45.589631 -122.604360 48 20ft 0kts
18-Feb-21 11:21 45.589631 -122.604360 48 20ft 0kts
18-Feb-21 11:22 45.589908 -122.602691 307 20ft 11kts
18-Feb-21 11:23 45.591818 -122.599132 75 21ft 20kts
18-Feb-21 11:24 45.591778 -122.593316 121 21ft 21kts
18-Feb-21 11:25 45.589232 -122.587015 118 21ft 15kts

Navigation Log

Ident Type
Flight plan parsing failed, navigation log unavailable